createdAt,value
2019-03-17T00:03:57.013Z,7.66
2019-03-17T00:08:03.326Z,7.57
2019-03-17T00:12:07.575Z,7.49
2019-03-17T00:16:15.400Z,7.41
2019-03-17T00:20:21.938Z,7.39
2019-03-17T00:24:26.141Z,7.40
2019-03-17T00:28:33.242Z,7.39
2019-03-17T00:32:39.682Z,7.42
2019-03-17T00:36:47.146Z,7.48
2019-03-17T00:40:52.795Z,7.43
2019-03-17T00:44:57.686Z,7.41
2019-03-17T00:49:01.992Z,7.37
2019-03-17T00:53:06.730Z,7.27
2019-03-17T00:57:10.941Z,7.28
2019-03-17T01:01:16.748Z,7.15
2019-03-17T01:05:20.926Z,7.08
2019-03-17T01:09:25.217Z,7.06
2019-03-17T01:13:29.696Z,7.00
2019-03-17T01:17:33.938Z,6.86
2019-03-17T01:21:38.463Z,6.87
2019-03-17T01:25:45.141Z,6.88
2019-03-17T01:29:53.043Z,6.88
2019-03-17T01:33:59.197Z,6.80
2019-03-17T01:38:03.445Z,6.79
2019-03-17T01:42:07.611Z,6.82
2019-03-17T01:46:11.835Z,6.82
2019-03-17T01:50:16.401Z,6.76
2019-03-17T01:54:20.960Z,6.70
2019-03-17T01:58:27.411Z,6.72
2019-03-17T02:02:36.367Z,6.79
2019-03-17T02:06:40.578Z,6.83
2019-03-17T02:10:45.143Z,6.79
2019-03-17T02:14:49.357Z,6.81
2019-03-17T02:18:55.194Z,6.75
2019-03-17T02:22:59.440Z,6.74
2019-03-17T02:27:04.266Z,6.73
2019-03-17T02:31:09.103Z,6.70
2019-03-17T02:35:16.012Z,6.61
2019-03-17T02:39:22.093Z,6.59
2019-03-17T02:43:27.813Z,6.57
2019-03-17T02:47:32.688Z,6.61
2019-03-17T02:51:37.677Z,6.62
2019-03-17T02:55:42.065Z,6.62
2019-03-17T02:59:46.285Z,6.61
2019-03-17T03:03:51.060Z,6.53
2019-03-17T03:07:55.456Z,6.45
2019-03-17T03:11:59.937Z,6.33
2019-03-17T03:16:05.917Z,6.32
2019-03-17T03:20:13.329Z,6.24
2019-03-17T03:24:19.050Z,6.16
2019-03-17T03:28:23.840Z,6.07
2019-03-17T03:32:28.201Z,6.04
2019-03-17T03:36:32.370Z,6.00
2019-03-17T03:40:36.873Z,5.86
2019-03-17T03:44:41.366Z,5.76
2019-03-17T03:48:45.577Z,5.74
2019-03-17T03:52:49.803Z,5.72
2019-03-17T03:56:54.033Z,5.62
2019-03-17T04:00:58.282Z,5.56
2019-03-17T04:05:02.498Z,5.52
2019-03-17T04:09:08.735Z,5.52
2019-03-17T04:13:14.499Z,5.52
2019-03-17T04:17:22.260Z,5.50
2019-03-17T04:21:27.384Z,5.51
2019-03-17T04:25:34.034Z,5.52
2019-03-17T04:29:41.543Z,5.51
2019-03-17T04:33:45.768Z,5.50
2019-03-17T04:37:50.302Z,5.50
2019-03-17T04:41:55.712Z,5.42
2019-03-17T04:46:01.006Z,5.36
2019-03-17T04:50:05.828Z,5.31
2019-03-17T04:54:11.189Z,5.25
2019-03-17T04:58:17.010Z,5.21
2019-03-17T05:02:21.962Z,5.18
2019-03-17T05:06:26.572Z,5.15
2019-03-17T05:10:30.776Z,5.13
2019-03-17T05:14:35.397Z,5.13
2019-03-17T05:18:39.909Z,5.12
2019-03-17T05:22:44.447Z,5.07
2019-03-17T05:26:48.617Z,5.03
2019-03-17T05:30:53.079Z,5.04
2019-03-17T05:34:57.266Z,5.03
2019-03-17T05:39:03.051Z,5.04
2019-03-17T05:43:08.242Z,5.07
2019-03-17T05:47:13.594Z,5.11
2019-03-17T05:51:18.923Z,5.08
2019-03-17T05:55:25.115Z,5.07
2019-03-17T05:59:29.305Z,5.11
2019-03-17T06:03:34.208Z,5.18
2019-03-17T06:07:39.294Z,5.24
2019-03-17T06:11:43.466Z,5.35
2019-03-17T06:15:48.460Z,5.42
2019-03-17T06:19:54.754Z,5.43
2019-03-17T06:24:00.536Z,5.46
2019-03-17T06:28:04.757Z,5.47
2019-03-17T06:32:09.664Z,5.52
2019-03-17T06:36:14.099Z,5.53
2019-03-17T06:40:27.118Z,5.56
2019-03-17T06:44:55.313Z,5.61
2019-03-17T06:49:42.196Z,5.68
2019-03-17T06:54:31.027Z,5.74
2019-03-17T06:58:35.345Z,5.85
2019-03-17T07:02:39.519Z,5.94
2019-03-17T07:07:10.934Z,5.98
2019-03-17T07:11:49.035Z,6.08
2019-03-17T07:15:55.560Z,6.23
2019-03-17T07:20:00.511Z,6.36
2019-03-17T07:24:06.471Z,6.45
2019-03-17T07:28:12.079Z,6.55
2019-03-17T07:32:16.253Z,6.70
2019-03-17T07:36:20.523Z,6.88
2019-03-17T07:40:25.288Z,7.08
2019-03-17T07:44:31.134Z,7.29
2019-03-17T07:48:37.020Z,7.49
2019-03-17T07:52:41.386Z,7.72
2019-03-17T07:56:46.997Z,7.88
2019-03-17T08:00:53.023Z,8.01
2019-03-17T08:04:58.465Z,8.15
2019-03-17T08:09:02.800Z,8.23
2019-03-17T08:13:07.070Z,8.36
2019-03-17T08:17:11.420Z,8.50
2019-03-17T08:21:15.818Z,8.61
2019-03-17T08:25:21.211Z,8.71
2019-03-17T08:29:25.730Z,8.89
2019-03-17T08:33:30.769Z,9.03
2019-03-17T08:37:36.660Z,9.15
2019-03-17T08:41:41.118Z,9.26
2019-03-17T08:45:48.566Z,9.40
2019-03-17T08:49:52.980Z,9.53
2019-03-17T08:53:57.229Z,9.72
2019-03-17T08:58:01.811Z,9.84
2019-03-17T09:02:07.107Z,9.98
2019-03-17T09:06:11.386Z,10.10
2019-03-17T09:10:17.785Z,10.22
2019-03-17T09:14:22.532Z,10.36
2019-03-17T09:18:30.218Z,10.52
2019-03-17T09:22:37.756Z,10.65
2019-03-17T09:26:42.016Z,10.97
2019-03-17T09:30:47.203Z,11.11
2019-03-17T09:35:01.817Z,11.23
2019-03-17T09:39:07.511Z,11.23
2019-03-17T09:43:11.806Z,11.36
2019-03-17T09:47:17.120Z,11.51
2019-03-17T09:51:23.032Z,11.66
2019-03-17T09:55:28.558Z,11.77
2019-03-17T09:59:45.062Z,11.86
2019-03-17T10:03:49.300Z,11.91
2019-03-17T10:07:53.615Z,12.05
2019-03-17T10:11:57.889Z,12.17
2019-03-17T10:16:02.109Z,12.31
2019-03-17T10:20:09.413Z,12.50
2019-03-17T10:24:14.052Z,12.62
2019-03-17T10:28:18.746Z,12.69
2019-03-17T10:32:24.698Z,12.80
2019-03-17T10:36:29.216Z,12.94
2019-03-17T10:40:33.534Z,13.17
2019-03-17T10:44:37.778Z,13.31
2019-03-17T10:48:41.993Z,13.48
2019-03-17T10:52:46.390Z,13.68
2019-03-17T10:56:53.046Z,13.94
2019-03-17T11:00:57.323Z,14.13
2019-03-17T11:05:03.414Z,14.24
2019-03-17T11:09:07.586Z,14.30
2019-03-17T11:13:13.765Z,14.41
2019-03-17T11:17:18.948Z,14.54
2019-03-17T11:21:23.206Z,14.65
2019-03-17T11:25:27.541Z,14.77
2019-03-17T11:29:31.836Z,14.84
2019-03-17T11:33:36.139Z,14.89
2019-03-17T11:37:40.314Z,14.98
2019-03-17T11:41:45.395Z,15.13
2019-03-17T11:45:49.608Z,15.28
2019-03-17T11:49:55.645Z,15.32
2019-03-17T11:54:01.039Z,15.47
2019-03-17T11:58:05.365Z,15.54
2019-03-17T12:02:09.647Z,15.51
2019-03-17T12:06:15.108Z,15.51
2019-03-17T12:10:19.334Z,15.51
2019-03-17T12:14:23.588Z,15.52
2019-03-17T12:18:27.849Z,15.58
2019-03-17T12:22:32.024Z,15.67
2019-03-17T12:26:37.570Z,15.75
2019-03-17T12:30:41.825Z,15.85
2019-03-17T12:34:46.644Z,15.98
2019-03-17T12:38:51.494Z,16.12
2019-03-17T12:42:55.807Z,16.20
2019-03-17T12:47:00.276Z,16.28
2019-03-17T12:51:08.973Z,16.38
2019-03-17T12:55:13.144Z,16.48
2019-03-17T12:59:17.877Z,16.59
2019-03-17T13:03:22.100Z,16.65
2019-03-17T13:07:26.864Z,16.67
2019-03-17T13:11:31.065Z,16.71
2019-03-17T13:15:35.689Z,16.82
2019-03-17T13:19:39.986Z,16.93
2019-03-17T13:23:44.255Z,17.09
2019-03-17T13:27:48.511Z,17.23
2019-03-17T13:31:55.292Z,17.42
2019-03-17T13:35:59.660Z,17.55
2019-03-17T13:40:08.978Z,17.70
2019-03-17T13:44:14.966Z,17.78
2019-03-17T13:48:19.804Z,17.86
2019-03-17T13:52:24.215Z,17.92
2019-03-17T13:56:28.666Z,18.08
2019-03-17T14:00:33.907Z,18.14
2019-03-17T14:04:38.148Z,18.24
2019-03-17T14:08:42.452Z,18.32
2019-03-17T14:12:47.567Z,18.39
2019-03-17T14:16:51.800Z,18.49
2019-03-17T14:20:57.533Z,18.59
2019-03-17T14:25:02.582Z,18.63
2019-03-17T14:29:06.841Z,18.67
2019-03-17T14:33:12.584Z,18.75
2019-03-17T14:37:17.422Z,18.81
2019-03-17T14:41:22.222Z,18.87
2019-03-17T14:45:26.571Z,18.98
2019-03-17T14:49:30.816Z,19.02
2019-03-17T14:53:35.007Z,19.07
2019-03-17T14:57:39.376Z,19.08
2019-03-17T15:01:43.654Z,19.15
2019-03-17T15:05:48.072Z,19.21
2019-03-17T15:09:52.572Z,19.21
2019-03-17T15:13:56.801Z,19.19
2019-03-17T15:18:01.207Z,19.23
2019-03-17T15:22:05.460Z,19.23
2019-03-17T15:26:09.712Z,19.23
2019-03-17T15:30:16.218Z,19.26
2019-03-17T15:34:20.590Z,19.27
2019-03-17T15:38:25.036Z,19.28
2019-03-17T15:42:29.501Z,19.29
2019-03-17T15:46:33.688Z,19.28
2019-03-17T15:50:37.928Z,19.25
2019-03-17T15:54:42.318Z,19.25
2019-03-17T15:58:46.522Z,19.25
2019-03-17T16:02:51.752Z,19.24
2019-03-17T16:06:55.942Z,19.21
2019-03-17T16:11:00.242Z,19.18
2019-03-17T16:15:04.953Z,19.17
2019-03-17T16:19:10.730Z,19.15
2019-03-17T16:23:16.279Z,19.12
2019-03-17T16:27:21.572Z,19.09
2019-03-17T16:31:25.891Z,19.05
2019-03-17T16:35:33.801Z,18.99
2019-03-17T16:39:40.036Z,18.94
2019-03-17T16:43:44.948Z,18.86
2019-03-17T16:47:49.134Z,18.78
2019-03-17T16:51:53.470Z,18.70
2019-03-17T16:55:57.881Z,18.64
2019-03-17T17:00:05.667Z,18.56
2019-03-17T17:04:12.095Z,18.48
2019-03-17T17:08:16.603Z,18.38
2019-03-17T17:12:20.827Z,18.28
2019-03-17T17:16:25.136Z,18.17
2019-03-17T17:20:29.824Z,18.08
2019-03-17T17:24:34.254Z,17.97
2019-03-17T17:28:38.892Z,17.87
2019-03-17T17:32:43.352Z,17.80
2019-03-17T17:36:47.841Z,17.72
2019-03-17T17:40:54.195Z,17.67
2019-03-17T17:44:58.772Z,17.58
2019-03-17T17:49:04.784Z,17.53
2019-03-17T17:53:09.249Z,17.43
2019-03-17T17:57:13.903Z,17.27
2019-03-17T18:01:18.976Z,17.15
2019-03-17T18:05:23.583Z,17.07
2019-03-17T18:09:28.381Z,17.03
2019-03-17T18:13:33.095Z,16.97
2019-03-17T18:17:37.826Z,16.92
2019-03-17T18:21:42.561Z,16.90
2019-03-17T18:25:47.341Z,16.88
2019-03-17T18:29:51.905Z,16.87
2019-03-17T18:33:56.830Z,16.86
2019-03-17T18:38:03.913Z,16.82
2019-03-17T18:42:08.786Z,16.79
2019-03-17T18:46:13.017Z,16.75
2019-03-17T18:50:20.660Z,16.76
2019-03-17T18:54:25.672Z,16.75
2019-03-17T18:58:30.066Z,16.71
2019-03-17T19:02:34.276Z,16.70
2019-03-17T19:06:38.791Z,16.69
2019-03-17T19:10:43.077Z,16.66
2019-03-17T19:14:47.886Z,16.64
2019-03-17T19:18:52.365Z,16.61
2019-03-17T19:22:56.706Z,16.54
2019-03-17T19:27:01.009Z,16.48
2019-03-17T19:31:05.850Z,16.40
2019-03-17T19:35:10.485Z,16.28
2019-03-17T19:39:14.737Z,16.17
2019-03-17T19:43:19.256Z,16.08
2019-03-17T19:47:23.660Z,15.98
2019-03-17T19:51:28.078Z,15.87
2019-03-17T19:55:32.640Z,15.74
2019-03-17T19:59:37.234Z,15.61
2019-03-17T20:03:41.955Z,15.50
2019-03-17T20:07:46.658Z,15.36
2019-03-17T20:11:51.549Z,15.24
2019-03-17T20:15:56.148Z,15.14
2019-03-17T20:20:00.661Z,14.99
2019-03-17T20:24:04.971Z,14.93
2019-03-17T20:28:10.238Z,14.90
2019-03-17T20:32:14.491Z,14.85
2019-03-17T20:36:19.096Z,14.80
2019-03-17T20:40:23.750Z,14.77
2019-03-17T20:44:28.480Z,14.75
2019-03-17T20:48:33.271Z,14.71
2019-03-17T20:52:38.281Z,14.67
2019-03-17T20:56:42.506Z,14.66
2019-03-17T21:00:46.746Z,14.67
2019-03-17T21:04:52.755Z,14.68
2019-03-17T21:08:57.004Z,14.70
2019-03-17T21:13:01.447Z,14.72
2019-03-17T21:17:05.793Z,14.68
2019-03-17T21:21:10.040Z,14.64
2019-03-17T21:25:14.283Z,14.60
2019-03-17T21:29:18.811Z,14.56
2019-03-17T21:33:23.054Z,14.55
2019-03-17T21:37:27.352Z,14.56
2019-03-17T21:41:31.589Z,14.57
2019-03-17T21:45:35.952Z,14.57
2019-03-17T21:49:40.152Z,14.57
2019-03-17T21:53:44.387Z,14.59
2019-03-17T21:57:48.677Z,14.65
2019-03-17T22:01:52.903Z,14.66
2019-03-17T22:05:57.124Z,14.65
2019-03-17T22:10:01.408Z,14.62
2019-03-17T22:14:11.917Z,14.54
2019-03-17T22:18:11.693Z,14.34
2019-03-17T22:22:16.062Z,14.10
2019-03-17T22:26:20.239Z,13.75
2019-03-17T22:30:24.458Z,13.48
2019-03-17T22:34:28.710Z,13.24
2019-03-17T22:38:32.931Z,13.09
2019-03-17T22:42:37.138Z,12.89
2019-03-17T22:46:41.408Z,12.69
2019-03-17T22:50:45.674Z,12.27
2019-03-17T22:54:49.901Z,12.27
2019-03-17T22:58:54.195Z,12.15
2019-03-17T23:02:59.269Z,11.99
2019-03-17T23:07:03.493Z,11.88
2019-03-17T23:11:07.846Z,11.74
2019-03-17T23:15:12.224Z,11.52
2019-03-17T23:19:16.408Z,11.48
2019-03-17T23:23:20.611Z,11.48
2019-03-17T23:27:24.852Z,11.43
2019-03-17T23:31:29.047Z,11.39
2019-03-17T23:35:33.313Z,11.27
2019-03-17T23:39:37.529Z,11.06
2019-03-17T23:43:41.727Z,10.87
2019-03-17T23:47:45.942Z,10.70
2019-03-17T23:51:50.357Z,10.55
2019-03-17T23:55:54.552Z,10.38
2019-03-17T23:59:58.811Z,10.27
